sensor_id;sensor_type;location;lat;lon;timestamp;temperature;humidity
12726;DHT22;6427;49.754;6.106;2023-03-01T00:02:10;0.20;90.90
12726;DHT22;6427;49.754;6.106;2023-03-01T00:04:38;0.10;90.90
12726;DHT22;6427;49.754;6.106;2023-03-01T00:07:06;0.10;91.10
12726;DHT22;6427;49.754;6.106;2023-03-01T00:09:35;0.10;91.00
12726;DHT22;6427;49.754;6.106;2023-03-01T00:12:02;0.10;91.10
12726;DHT22;6427;49.754;6.106;2023-03-01T00:14:29;0.10;91.20
12726;DHT22;6427;49.754;6.106;2023-03-01T00:16:57;0.10;91.20
12726;DHT22;6427;49.754;6.106;2023-03-01T00:19:24;0.00;91.20
12726;DHT22;6427;49.754;6.106;2023-03-01T00:21:52;0.00;91.30
12726;DHT22;6427;49.754;6.106;2023-03-01T00:24:19;0.00;91.40
12726;DHT22;6427;49.754;6.106;2023-03-01T00:26:47;0.10;91.60
12726;DHT22;6427;49.754;6.106;2023-03-01T00:29:15;0.40;91.50
12726;DHT22;6427;49.754;6.106;2023-03-01T00:31:42;0.30;91.20
12726;DHT22;6427;49.754;6.106;2023-03-01T00:34:10;0.20;91.30
12726;DHT22;6427;49.754;6.106;2023-03-01T00:36:37;0.10;91.40
12726;DHT22;6427;49.754;6.106;2023-03-01T00:39:09;0.00;92.10
12726;DHT22;6427;49.754;6.106;2023-03-01T00:41:33;-0.10;91.70
12726;DHT22;6427;49.754;6.106;2023-03-01T00:44:01;-0.10;91.80
12726;DHT22;6427;49.754;6.106;2023-03-01T00:46:29;-0.10;91.90
12726;DHT22;6427;49.754;6.106;2023-03-01T00:48:56;-0.10;92.00
12726;DHT22;6427;49.754;6.106;2023-03-01T00:51:25;-0.20;92.10
12726;DHT22;6427;49.754;6.106;2023-03-01T00:53:53;-0.20;92.20
12726;DHT22;6427;49.754;6.106;2023-03-01T00:56:20;-0.20;92.40
12726;DHT22;6427;49.754;6.106;2023-03-01T00:58:47;-0.20;92.40
12726;DHT22;6427;49.754;6.106;2023-03-01T01:01:17;-0.30;92.50
12726;DHT22;6427;49.754;6.106;2023-03-01T01:03:52;-0.30;92.70
12726;DHT22;6427;49.754;6.106;2023-03-01T01:06:20;-0.30;92.80
12726;DHT22;6427;49.754;6.106;2023-03-01T01:08:47;-0.20;93.00
12726;DHT22;6427;49.754;6.106;2023-03-01T01:11:14;-0.20;92.80
12726;DHT22;6427;49.754;6.106;2023-03-01T01:13:43;-0.20;92.70
12726;DHT22;6427;49.754;6.106;2023-03-01T01:16:09;-0.30;93.30
12726;DHT22;6427;49.754;6.106;2023-03-01T01:18:37;-0.40;93.60
12726;DHT22;6427;49.754;6.106;2023-03-01T01:21:09;-0.20;93.90
12726;DHT22;6427;49.754;6.106;2023-03-01T01:23:35;-0.20;93.80
12726;DHT22;6427;49.754;6.106;2023-03-01T01:26:10;-0.20;93.80
12726;DHT22;6427;49.754;6.106;2023-03-01T01:28:36;-0.20;94.00
12726;DHT22;6427;49.754;6.106;2023-03-01T01:31:05;-0.20;94.00
12726;DHT22;6427;49.754;6.106;2023-03-01T01:33:32;-0.20;94.00
12726;DHT22;6427;49.754;6.106;2023-03-01T01:36:00;-0.20;94.00
12726;DHT22;6427;49.754;6.106;2023-03-01T01:38:27;-0.20;94.10
12726;DHT22;6427;49.754;6.106;2023-03-01T01:40:55;-0.20;94.10
12726;DHT22;6427;49.754;6.106;2023-03-01T01:43:26;-0.20;94.10
12726;DHT22;6427;49.754;6.106;2023-03-01T01:45:59;0.00;94.20
12726;DHT22;6427;49.754;6.106;2023-03-01T01:48:28;0.00;94.00
12726;DHT22;6427;49.754;6.106;2023-03-01T01:50:55;0.00;94.10
12726;DHT22;6427;49.754;6.106;2023-03-01T01:53:21;-0.10;94.10
12726;DHT22;6427;49.754;6.106;2023-03-01T01:55:51;-0.10;94.30
12726;DHT22;6427;49.754;6.106;2023-03-01T01:58:17;-0.10;94.20
12726;DHT22;6427;49.754;6.106;2023-03-01T02:00:44;-0.10;94.30
12726;DHT22;6427;49.754;6.106;2023-03-01T02:03:17;-0.10;94.40
12726;DHT22;6427;49.754;6.106;2023-03-01T02:05:55;-0.10;94.40
12726;DHT22;6427;49.754;6.106;2023-03-01T02:08:19;-0.10;94.70
12726;DHT22;6427;49.754;6.106;2023-03-01T02:10:46;-0.10;94.40
12726;DHT22;6427;49.754;6.106;2023-03-01T02:13:14;-0.10;94.60
12726;DHT22;6427;49.754;6.106;2023-03-01T02:15:41;-0.10;94.60
12726;DHT22;6427;49.754;6.106;2023-03-01T02:18:09;-0.10;94.50
12726;DHT22;6427;49.754;6.106;2023-03-01T02:21:08;-0.10;94.60
12726;DHT22;6427;49.754;6.106;2023-03-01T02:23:32;-0.10;94.60
12726;DHT22;6427;49.754;6.106;2023-03-01T02:28:52;-0.20;94.60
12726;DHT22;6427;49.754;6.106;2023-03-01T02:31:20;-0.30;94.80
12726;DHT22;6427;49.754;6.106;2023-03-01T02:34:06;-0.30;94.80
12726;DHT22;6427;49.754;6.106;2023-03-01T02:37:20;-0.40;95.10
12726;DHT22;6427;49.754;6.106;2023-03-01T02:39:03;-0.40;95.10
12726;DHT22;6427;49.754;6.106;2023-03-01T02:41:31;-0.40;95.10
12726;DHT22;6427;49.754;6.106;2023-03-01T02:43:57;-0.40;95.10
12726;DHT22;6427;49.754;6.106;2023-03-01T02:46:25;-0.50;95.20
12726;DHT22;6427;49.754;6.106;2023-03-01T02:48:53;-0.50;95.30
12726;DHT22;6427;49.754;6.106;2023-03-01T02:51:28;-0.50;95.40
12726;DHT22;6427;49.754;6.106;2023-03-01T02:56:20;-0.60;95.60
12726;DHT22;6427;49.754;6.106;2023-03-01T02:58:48;-0.60;95.70
12726;DHT22;6427;49.754;6.106;2023-03-01T03:01:15;-0.70;95.90
12726;DHT22;6427;49.754;6.106;2023-03-01T03:03:43;-0.80;96.20
12726;DHT22;6427;49.754;6.106;2023-03-01T03:06:11;-0.80;96.90
12726;DHT22;6427;49.754;6.106;2023-03-01T03:08:39;-0.90;96.50
12726;DHT22;6427;49.754;6.106;2023-03-01T03:11:06;-0.90;96.80
12726;DHT22;6427;49.754;6.106;2023-03-01T03:13:34;-0.90;97.10
12726;DHT22;6427;49.754;6.106;2023-03-01T03:16:02;-0.90;97.50
12726;DHT22;6427;49.754;6.106;2023-03-01T03:18:29;-1.00;97.70
12726;DHT22;6427;49.754;6.106;2023-03-01T03:20:57;-1.00;98.10
12726;DHT22;6427;49.754;6.106;2023-03-01T03:23:25;-1.00;98.10
12726;DHT22;6427;49.754;6.106;2023-03-01T03:25:52;-1.00;98.30
12726;DHT22;6427;49.754;6.106;2023-03-01T03:28:20;-1.00;98.60
12726;DHT22;6427;49.754;6.106;2023-03-01T03:30:48;-1.00;99.20
12726;DHT22;6427;49.754;6.106;2023-03-01T03:33:16;-1.00;99.20
12726;DHT22;6427;49.754;6.106;2023-03-01T03:35:46;-1.00;99.40
12726;DHT22;6427;49.754;6.106;2023-03-01T03:38:12;-1.00;99.70
12726;DHT22;6427;49.754;6.106;2023-03-01T03:40:39;-1.00;99.90
12726;DHT22;6427;49.754;6.106;2023-03-01T03:43:12;-0.80;99.90
12726;DHT22;6427;49.754;6.106;2023-03-01T03:45:37;-0.80;99.90
12726;DHT22;6427;49.754;6.106;2023-03-01T03:48:06;-0.50;99.80
12726;DHT22;6427;49.754;6.106;2023-03-01T03:50:33;-0.50;99.80
12726;DHT22;6427;49.754;6.106;2023-03-01T03:53:02;-0.50;99.80
12726;DHT22;6427;49.754;6.106;2023-03-01T03:55:29;-0.50;99.80
12726;DHT22;6427;49.754;6.106;2023-03-01T03:57:58;-0.60;99.90
12726;DHT22;6427;49.754;6.106;2023-03-01T04:00:25;-0.60;99.90
12726;DHT22;6427;49.754;6.106;2023-03-01T04:02:52;-0.60;99.90
12726;DHT22;6427;49.754;6.106;2023-03-01T04:05:20;-0.60;99.90
12726;DHT22;6427;49.754;6.106;2023-03-01T04:07:48;-0.60;99.90
12726;DHT22;6427;49.754;6.106;2023-03-01T04:10:17;-0.60;99.90
12726;DHT22;6427;49.754;6.106;2023-03-01T04:12:43;-0.60;99.90
12726;DHT22;6427;49.754;6.106;2023-03-01T04:15:11;-0.60;99.90
12726;DHT22;6427;49.754;6.106;2023-03-01T04:17:42;-0.60;99.90
12726;DHT22;6427;49.754;6.106;2023-03-01T04:20:17;-0.60;99.90
12726;DHT22;6427;49.754;6.106;2023-03-01T04:22:46;-0.60;99.90
12726;DHT22;6427;49.754;6.106;2023-03-01T04:25:13;-0.60;99.90
12726;DHT22;6427;49.754;6.106;2023-03-01T04:27:41;-0.60;99.90
12726;DHT22;6427;49.754;6.106;2023-03-01T04:30:09;-0.60;99.90
12726;DHT22;6427;49.754;6.106;2023-03-01T04:32:36;-0.50;99.90
12726;DHT22;6427;49.754;6.106;2023-03-01T04:35:04;-0.60;99.90
12726;DHT22;6427;49.754;6.106;2023-03-01T04:37:32;-0.60;99.90
12726;DHT22;6427;49.754;6.106;2023-03-01T04:40:00;-0.60;99.90
12726;DHT22;6427;49.754;6.106;2023-03-01T04:42:27;-0.60;99.90
12726;DHT22;6427;49.754;6.106;2023-03-01T04:44:55;-0.60;99.90
12726;DHT22;6427;49.754;6.106;2023-03-01T04:47:22;-0.70;99.90
12726;DHT22;6427;49.754;6.106;2023-03-01T04:49:50;-0.70;99.90
12726;DHT22;6427;49.754;6.106;2023-03-01T04:52:18;-0.70;99.90
12726;DHT22;6427;49.754;6.106;2023-03-01T04:54:46;-0.70;99.90
12726;DHT22;6427;49.754;6.106;2023-03-01T04:57:13;-0.70;99.90
12726;DHT22;6427;49.754;6.106;2023-03-01T04:59:41;-0.80;99.90
12726;DHT22;6427;49.754;6.106;2023-03-01T05:02:08;-0.80;99.90
12726;DHT22;6427;49.754;6.106;2023-03-01T05:04:36;-0.90;99.90
12726;DHT22;6427;49.754;6.106;2023-03-01T05:07:03;-0.90;99.90
12726;DHT22;6427;49.754;6.106;2023-03-01T05:09:31;-1.00;99.90
12726;DHT22;6427;49.754;6.106;2023-03-01T05:11:59;-1.00;99.90
12726;DHT22;6427;49.754;6.106;2023-03-01T05:14:27;-1.10;99.90
12726;DHT22;6427;49.754;6.106;2023-03-01T05:16:54;-1.10;99.90
12726;DHT22;6427;49.754;6.106;2023-03-01T05:19:22;-0.90;99.90
12726;DHT22;6427;49.754;6.106;2023-03-01T05:21:49;-0.90;99.90
12726;DHT22;6427;49.754;6.106;2023-03-01T05:24:30;-0.90;99.90
12726;DHT22;6427;49.754;6.106;2023-03-01T05:26:57;-0.90;99.90
12726;DHT22;6427;49.754;6.106;2023-03-01T05:29:25;-0.90;99.90
12726;DHT22;6427;49.754;6.106;2023-03-01T05:31:55;-0.90;99.90
12726;DHT22;6427;49.754;6.106;2023-03-01T05:34:30;-0.50;99.90
12726;DHT22;6427;49.754;6.106;2023-03-01T05:36:54;-0.50;99.90
12726;DHT22;6427;49.754;6.106;2023-03-01T05:39:22;-0.50;99.90
12726;DHT22;6427;49.754;6.106;2023-03-01T05:41:52;-0.60;99.90
12726;DHT22;6427;49.754;6.106;2023-03-01T05:44:19;-0.70;99.90
12726;DHT22;6427;49.754;6.106;2023-03-01T05:46:48;-0.80;99.90
12726;DHT22;6427;49.754;6.106;2023-03-01T05:49:15;-0.80;99.90
12726;DHT22;6427;49.754;6.106;2023-03-01T05:51:43;-0.80;99.90
12726;DHT22;6427;49.754;6.106;2023-03-01T05:54:10;-0.70;99.90
12726;DHT22;6427;49.754;6.106;2023-03-01T05:56:38;-0.70;99.90
12726;DHT22;6427;49.754;6.106;2023-03-01T05:59:06;-0.80;99.90
12726;DHT22;6427;49.754;6.106;2023-03-01T06:01:35;-0.80;99.90
12726;DHT22;6427;49.754;6.106;2023-03-01T06:04:02;-0.80;99.90
12726;DHT22;6427;49.754;6.106;2023-03-01T06:06:32;-0.80;99.90
12726;DHT22;6427;49.754;6.106;2023-03-01T06:08:57;-0.60;99.90
12726;DHT22;6427;49.754;6.106;2023-03-01T06:11:25;-0.70;99.90
12726;DHT22;6427;49.754;6.106;2023-03-01T06:13:52;-0.70;99.90
12726;DHT22;6427;49.754;6.106;2023-03-01T06:16:20;-0.80;99.90
12726;DHT22;6427;49.754;6.106;2023-03-01T06:18:47;-0.90;99.90
12726;DHT22;6427;49.754;6.106;2023-03-01T06:21:15;-1.00;99.90
12726;DHT22;6427;49.754;6.106;2023-03-01T06:23:42;-1.00;99.90
12726;DHT22;6427;49.754;6.106;2023-03-01T06:26:10;-1.10;99.90
12726;DHT22;6427;49.754;6.106;2023-03-01T06:28:37;-1.10;99.90
12726;DHT22;6427;49.754;6.106;2023-03-01T06:31:06;-1.20;99.90
12726;DHT22;6427;49.754;6.106;2023-03-01T06:33:33;-1.20;99.90
12726;DHT22;6427;49.754;6.106;2023-03-01T06:36:01;-1.30;99.90
12726;DHT22;6427;49.754;6.106;2023-03-01T06:38:28;-1.30;99.90
12726;DHT22;6427;49.754;6.106;2023-03-01T06:40:56;-1.30;99.90
12726;DHT22;6427;49.754;6.106;2023-03-01T06:43:24;-1.30;99.90
12726;DHT22;6427;49.754;6.106;2023-03-01T06:45:51;-1.40;99.90
12726;DHT22;6427;49.754;6.106;2023-03-01T06:48:19;-1.30;99.90
12726;DHT22;6427;49.754;6.106;2023-03-01T06:50:47;-1.30;99.90
12726;DHT22;6427;49.754;6.106;2023-03-01T06:53:15;-1.30;99.90
12726;DHT22;6427;49.754;6.106;2023-03-01T06:55:42;-1.30;99.90
12726;DHT22;6427;49.754;6.106;2023-03-01T06:58:10;-1.30;99.90
12726;DHT22;6427;49.754;6.106;2023-03-01T07:00:37;-1.30;99.90
12726;DHT22;6427;49.754;6.106;2023-03-01T07:03:05;-1.10;99.90
12726;DHT22;6427;49.754;6.106;2023-03-01T07:05:33;-1.10;99.90
12726;DHT22;6427;49.754;6.106;2023-03-01T07:08:00;-1.10;99.90
12726;DHT22;6427;49.754;6.106;2023-03-01T07:10:28;-1.10;99.90
12726;DHT22;6427;49.754;6.106;2023-03-01T07:12:58;-1.10;99.90
12726;DHT22;6427;49.754;6.106;2023-03-01T07:15:26;-1.10;99.90
12726;DHT22;6427;49.754;6.106;2023-03-01T07:17:54;-1.10;99.90
12726;DHT22;6427;49.754;6.106;2023-03-01T07:20:22;-1.00;99.90
12726;DHT22;6427;49.754;6.106;2023-03-01T07:22:50;-1.00;99.90
12726;DHT22;6427;49.754;6.106;2023-03-01T07:25:17;-0.90;99.90
12726;DHT22;6427;49.754;6.106;2023-03-01T07:27:49;-0.90;99.90
12726;DHT22;6427;49.754;6.106;2023-03-01T07:30:13;-0.90;99.90
12726;DHT22;6427;49.754;6.106;2023-03-01T07:32:41;-0.90;99.90
12726;DHT22;6427;49.754;6.106;2023-03-01T07:35:08;-0.90;99.90
12726;DHT22;6427;49.754;6.106;2023-03-01T07:37:36;-0.70;99.90
12726;DHT22;6427;49.754;6.106;2023-03-01T07:40:04;-0.60;99.90
12726;DHT22;6427;49.754;6.106;2023-03-01T07:42:31;-0.70;99.90
12726;DHT22;6427;49.754;6.106;2023-03-01T07:45:00;-0.20;99.90
12726;DHT22;6427;49.754;6.106;2023-03-01T07:47:27;-0.20;99.90
12726;DHT22;6427;49.754;6.106;2023-03-01T07:49:55;0.00;99.90
12726;DHT22;6427;49.754;6.106;2023-03-01T07:52:22;0.00;99.90
12726;DHT22;6427;49.754;6.106;2023-03-01T07:54:50;-0.10;99.90
12726;DHT22;6427;49.754;6.106;2023-03-01T07:57:18;-0.20;99.90
12726;DHT22;6427;49.754;6.106;2023-03-01T07:59:46;-0.30;99.90
12726;DHT22;6427;49.754;6.106;2023-03-01T08:02:13;-0.30;99.90
12726;DHT22;6427;49.754;6.106;2023-03-01T08:04:41;-0.20;99.90
12726;DHT22;6427;49.754;6.106;2023-03-01T08:07:08;0.10;99.90
12726;DHT22;6427;49.754;6.106;2023-03-01T08:09:36;0.10;99.90
12726;DHT22;6427;49.754;6.106;2023-03-01T08:12:04;0.10;99.90
12726;DHT22;6427;49.754;6.106;2023-03-01T08:14:31;0.30;99.90
12726;DHT22;6427;49.754;6.106;2023-03-01T08:16:59;0.60;99.90
12726;DHT22;6427;49.754;6.106;2023-03-01T08:19:26;0.60;99.90
12726;DHT22;6427;49.754;6.106;2023-03-01T08:21:54;0.50;99.90
12726;DHT22;6427;49.754;6.106;2023-03-01T08:24:21;0.50;99.90
12726;DHT22;6427;49.754;6.106;2023-03-01T08:26:49;0.50;99.90
12726;DHT22;6427;49.754;6.106;2023-03-01T08:29:16;0.70;99.90
12726;DHT22;6427;49.754;6.106;2023-03-01T08:31:45;0.90;99.90
12726;DHT22;6427;49.754;6.106;2023-03-01T08:34:13;0.90;99.90
12726;DHT22;6427;49.754;6.106;2023-03-01T08:36:41;0.80;99.90
12726;DHT22;6427;49.754;6.106;2023-03-01T08:39:08;0.80;99.90
12726;DHT22;6427;49.754;6.106;2023-03-01T08:41:35;0.80;99.90
12726;DHT22;6427;49.754;6.106;2023-03-01T08:44:03;0.90;99.90
12726;DHT22;6427;49.754;6.106;2023-03-01T08:46:33;0.90;99.90
12726;DHT22;6427;49.754;6.106;2023-03-01T08:48:58;0.90;99.90
12726;DHT22;6427;49.754;6.106;2023-03-01T08:51:26;0.90;99.90
12726;DHT22;6427;49.754;6.106;2023-03-01T08:53:54;0.90;99.90
12726;DHT22;6427;49.754;6.106;2023-03-01T08:56:21;0.90;99.90
12726;DHT22;6427;49.754;6.106;2023-03-01T08:58:49;0.90;99.90
12726;DHT22;6427;49.754;6.106;2023-03-01T09:01:18;0.90;99.90
12726;DHT22;6427;49.754;6.106;2023-03-01T09:03:44;1.00;99.90
12726;DHT22;6427;49.754;6.106;2023-03-01T09:06:13;1.00;99.90
12726;DHT22;6427;49.754;6.106;2023-03-01T09:08:41;1.00;99.90
12726;DHT22;6427;49.754;6.106;2023-03-01T09:11:09;1.00;99.90
12726;DHT22;6427;49.754;6.106;2023-03-01T09:13:35;1.20;99.90
12726;DHT22;6427;49.754;6.106;2023-03-01T09:16:03;1.20;99.90
12726;DHT22;6427;49.754;6.106;2023-03-01T09:18:30;1.20;99.90
12726;DHT22;6427;49.754;6.106;2023-03-01T09:21:09;1.30;99.90
12726;DHT22;6427;49.754;6.106;2023-03-01T09:23:39;1.30;99.90
12726;DHT22;6427;49.754;6.106;2023-03-01T09:26:06;1.30;99.90
12726;DHT22;6427;49.754;6.106;2023-03-01T09:28:33;1.40;99.90
12726;DHT22;6427;49.754;6.106;2023-03-01T09:31:01;1.40;99.90
12726;DHT22;6427;49.754;6.106;2023-03-01T09:33:29;1.40;99.90
12726;DHT22;6427;49.754;6.106;2023-03-01T09:35:59;1.50;99.90
12726;DHT22;6427;49.754;6.106;2023-03-01T09:38:23;1.50;99.90
12726;DHT22;6427;49.754;6.106;2023-03-01T09:40:51;1.50;99.90
12726;DHT22;6427;49.754;6.106;2023-03-01T09:43:53;1.70;99.90
12726;DHT22;6427;49.754;6.106;2023-03-01T09:46:20;1.70;99.80
12726;DHT22;6427;49.754;6.106;2023-03-01T09:49:02;1.70;99.80
12726;DHT22;6427;49.754;6.106;2023-03-01T09:51:29;1.80;99.70
12726;DHT22;6427;49.754;6.106;2023-03-01T09:53:55;1.80;99.40
12726;DHT22;6427;49.754;6.106;2023-03-01T09:56:37;1.80;99.30
12726;DHT22;6427;49.754;6.106;2023-03-01T09:59:09;1.90;99.20
12726;DHT22;6427;49.754;6.106;2023-03-01T10:02:11;1.90;99.20
12726;DHT22;6427;49.754;6.106;2023-03-01T10:04:45;2.10;99.10
12726;DHT22;6427;49.754;6.106;2023-03-01T10:09:39;2.10;98.40
12726;DHT22;6427;49.754;6.106;2023-03-01T10:12:12;2.10;98.40
12726;DHT22;6427;49.754;6.106;2023-03-01T10:14:53;2.10;98.50
12726;DHT22;6427;49.754;6.106;2023-03-01T10:17:33;2.10;98.40
12726;DHT22;6427;49.754;6.106;2023-03-01T10:20:05;2.20;98.30
12726;DHT22;6427;49.754;6.106;2023-03-01T10:22:29;2.20;98.30
12726;DHT22;6427;49.754;6.106;2023-03-01T10:24:57;2.30;98.40
12726;DHT22;6427;49.754;6.106;2023-03-01T10:27:24;2.40;98.30
12726;DHT22;6427;49.754;6.106;2023-03-01T10:32:33;2.60;98.30
12726;DHT22;6427;49.754;6.106;2023-03-01T10:35:01;2.80;97.80
12726;DHT22;6427;49.754;6.106;2023-03-01T10:37:29;3.10;97.30
12726;DHT22;6427;49.754;6.106;2023-03-01T10:42:31;3.20;97.20
12726;DHT22;6427;49.754;6.106;2023-03-01T10:47:45;3.60;96.20
12726;DHT22;6427;49.754;6.106;2023-03-01T10:50:22;3.80;96.00
12726;DHT22;6427;49.754;6.106;2023-03-01T10:52:59;4.00;95.70
12726;DHT22;6427;49.754;6.106;2023-03-01T10:58:21;4.40;94.70
12726;DHT22;6427;49.754;6.106;2023-03-01T11:00:54;4.60;93.90
12726;DHT22;6427;49.754;6.106;2023-03-01T11:03:34;4.80;92.70
12726;DHT22;6427;49.754;6.106;2023-03-01T11:08:44;4.90;92.20
12726;DHT22;6427;49.754;6.106;2023-03-01T11:11:32;5.10;91.70
12726;DHT22;6427;49.754;6.106;2023-03-01T11:14:16;5.20;91.00
12726;DHT22;6427;49.754;6.106;2023-03-01T11:16:47;5.20;90.70
12726;DHT22;6427;49.754;6.106;2023-03-01T11:21:41;5.30;90.50
12726;DHT22;6427;49.754;6.106;2023-03-01T11:24:12;5.40;90.30
12726;DHT22;6427;49.754;6.106;2023-03-01T11:26:39;5.40;89.70
12726;DHT22;6427;49.754;6.106;2023-03-01T11:29:15;5.50;89.90
12726;DHT22;6427;49.754;6.106;2023-03-01T11:31:34;5.60;89.10
12726;DHT22;6427;49.754;6.106;2023-03-01T11:36:39;5.70;87.70
12726;DHT22;6427;49.754;6.106;2023-03-01T11:41:38;6.00;86.10
12726;DHT22;6427;49.754;6.106;2023-03-01T11:44:14;5.90;86.00
12726;DHT22;6427;49.754;6.106;2023-03-01T11:54:57;6.30;84.00
12726;DHT22;6427;49.754;6.106;2023-03-01T11:57:43;6.30;83.10
12726;DHT22;6427;49.754;6.106;2023-03-01T12:08:20;6.60;80.90
12726;DHT22;6427;49.754;6.106;2023-03-01T12:10:57;6.60;80.30
12726;DHT22;6427;49.754;6.106;2023-03-01T12:16:20;6.60;80.00
12726;DHT22;6427;49.754;6.106;2023-03-01T12:27:00;6.60;79.20
12726;DHT22;6427;49.754;6.106;2023-03-01T12:29:25;6.60;79.50
12726;DHT22;6427;49.754;6.106;2023-03-01T12:35:10;6.80;77.90
12726;DHT22;6427;49.754;6.106;2023-03-01T12:37:45;6.80;77.80
12726;DHT22;6427;49.754;6.106;2023-03-01T12:46:10;6.80;77.10
12726;DHT22;6427;49.754;6.106;2023-03-01T12:51:21;6.80;77.10
12726;DHT22;6427;49.754;6.106;2023-03-01T12:53:45;7.10;77.00
12726;DHT22;6427;49.754;6.106;2023-03-01T12:56:12;7.10;76.10
12726;DHT22;6427;49.754;6.106;2023-03-01T12:58:46;7.20;76.00
12726;DHT22;6427;49.754;6.106;2023-03-01T13:07:19;7.30;76.60
12726;DHT22;6427;49.754;6.106;2023-03-01T13:15:01;7.30;75.40
12726;DHT22;6427;49.754;6.106;2023-03-01T13:17:33;7.30;75.30
12726;DHT22;6427;49.754;6.106;2023-03-01T13:19:59;7.40;74.70
12726;DHT22;6427;49.754;6.106;2023-03-01T13:22:28;7.60;75.00
12726;DHT22;6427;49.754;6.106;2023-03-01T13:25:01;7.60;74.20
12726;DHT22;6427;49.754;6.106;2023-03-01T13:27:29;7.70;74.00
12726;DHT22;6427;49.754;6.106;2023-03-01T13:29:59;7.60;73.90
12726;DHT22;6427;49.754;6.106;2023-03-01T13:32:33;7.70;73.90
12726;DHT22;6427;49.754;6.106;2023-03-01T13:35:06;7.70;74.00
12726;DHT22;6427;49.754;6.106;2023-03-01T13:37:29;7.70;73.10
12726;DHT22;6427;49.754;6.106;2023-03-01T13:40:00;7.70;73.10
12726;DHT22;6427;49.754;6.106;2023-03-01T13:42:36;7.70;73.00
12726;DHT22;6427;49.754;6.106;2023-03-01T13:45:03;7.80;73.30
12726;DHT22;6427;49.754;6.106;2023-03-01T13:47:30;7.80;73.10
12726;DHT22;6427;49.754;6.106;2023-03-01T13:49:58;7.90;72.60
12726;DHT22;6427;49.754;6.106;2023-03-01T13:52:38;8.00;72.50
12726;DHT22;6427;49.754;6.106;2023-03-01T13:57:41;8.00;71.70
12726;DHT22;6427;49.754;6.106;2023-03-01T14:03:01;7.90;71.00
12726;DHT22;6427;49.754;6.106;2023-03-01T14:05:30;7.90;70.90
12726;DHT22;6427;49.754;6.106;2023-03-01T14:07:57;7.90;70.50
12726;DHT22;6427;49.754;6.106;2023-03-01T14:10:32;7.90;70.50
12726;DHT22;6427;49.754;6.106;2023-03-01T14:12:55;7.90;70.80
12726;DHT22;6427;49.754;6.106;2023-03-01T14:15:36;7.90;71.00
12726;DHT22;6427;49.754;6.106;2023-03-01T14:20:48;8.00;70.40
12726;DHT22;6427;49.754;6.106;2023-03-01T14:23:21;8.00;70.10
12726;DHT22;6427;49.754;6.106;2023-03-01T14:25:50;7.90;69.50
12726;DHT22;6427;49.754;6.106;2023-03-01T14:28:26;7.90;69.70
12726;DHT22;6427;49.754;6.106;2023-03-01T14:30:54;8.20;69.90
12726;DHT22;6427;49.754;6.106;2023-03-01T14:35:58;8.20;69.00
12726;DHT22;6427;49.754;6.106;2023-03-01T14:38:35;8.20;68.90
12726;DHT22;6427;49.754;6.106;2023-03-01T14:41:03;8.20;68.70
12726;DHT22;6427;49.754;6.106;2023-03-01T14:43:29;8.20;69.00
12726;DHT22;6427;49.754;6.106;2023-03-01T14:45:56;8.20;68.80
12726;DHT22;6427;49.754;6.106;2023-03-01T14:48:24;8.40;68.40
12726;DHT22;6427;49.754;6.106;2023-03-01T14:50:51;8.40;68.80
12726;DHT22;6427;49.754;6.106;2023-03-01T14:53:23;8.40;68.00
12726;DHT22;6427;49.754;6.106;2023-03-01T14:55:53;8.40;67.50
12726;DHT22;6427;49.754;6.106;2023-03-01T14:58:20;8.30;67.30
12726;DHT22;6427;49.754;6.106;2023-03-01T15:00:58;8.30;67.40
12726;DHT22;6427;49.754;6.106;2023-03-01T15:03:17;8.50;67.50
12726;DHT22;6427;49.754;6.106;2023-03-01T15:05:42;8.50;67.00
12726;DHT22;6427;49.754;6.106;2023-03-01T15:08:17;8.40;67.40
12726;DHT22;6427;49.754;6.106;2023-03-01T15:10:39;8.40;67.20
12726;DHT22;6427;49.754;6.106;2023-03-01T15:13:13;8.60;66.70
12726;DHT22;6427;49.754;6.106;2023-03-01T15:15:44;8.70;65.50
12726;DHT22;6427;49.754;6.106;2023-03-01T15:18:22;8.70;65.50
12726;DHT22;6427;49.754;6.106;2023-03-01T15:20:39;8.60;65.70
12726;DHT22;6427;49.754;6.106;2023-03-01T15:23:12;8.50;65.80
12726;DHT22;6427;49.754;6.106;2023-03-01T15:25:34;8.50;66.40
12726;DHT22;6427;49.754;6.106;2023-03-01T15:28:02;8.40;66.60
12726;DHT22;6427;49.754;6.106;2023-03-01T15:30:33;8.40;66.70
12726;DHT22;6427;49.754;6.106;2023-03-01T15:35:53;8.40;66.20
12726;DHT22;6427;49.754;6.106;2023-03-01T15:38:26;8.40;66.20
12726;DHT22;6427;49.754;6.106;2023-03-01T15:40:53;8.40;65.90
12726;DHT22;6427;49.754;6.106;2023-03-01T15:43:40;8.40;66.40
12726;DHT22;6427;49.754;6.106;2023-03-01T15:46:12;8.40;65.60
12726;DHT22;6427;49.754;6.106;2023-03-01T15:48:34;8.50;65.60
12726;DHT22;6427;49.754;6.106;2023-03-01T15:51:01;8.50;65.70
12726;DHT22;6427;49.754;6.106;2023-03-01T15:53:29;8.60;65.80
12726;DHT22;6427;49.754;6.106;2023-03-01T15:55:58;8.70;65.50
12726;DHT22;6427;49.754;6.106;2023-03-01T15:58:25;8.80;65.40
12726;DHT22;6427;49.754;6.106;2023-03-01T16:00:53;8.90;64.20
12726;DHT22;6427;49.754;6.106;2023-03-01T16:03:24;8.90;64.20
12726;DHT22;6427;49.754;6.106;2023-03-01T16:05:51;8.90;64.10
12726;DHT22;6427;49.754;6.106;2023-03-01T16:08:19;9.00;63.90
12726;DHT22;6427;49.754;6.106;2023-03-01T16:10:48;9.10;63.60
12726;DHT22;6427;49.754;6.106;2023-03-01T16:13:15;9.10;63.20
12726;DHT22;6427;49.754;6.106;2023-03-01T16:15:43;9.10;63.10
12726;DHT22;6427;49.754;6.106;2023-03-01T16:18:11;9.20;62.90
12726;DHT22;6427;49.754;6.106;2023-03-01T16:20:38;9.30;62.90
12726;DHT22;6427;49.754;6.106;2023-03-01T16:23:06;9.30;61.70
12726;DHT22;6427;49.754;6.106;2023-03-01T16:25:34;9.30;61.20
12726;DHT22;6427;49.754;6.106;2023-03-01T16:28:02;9.40;61.20
12726;DHT22;6427;49.754;6.106;2023-03-01T16:30:35;9.40;61.10
12726;DHT22;6427;49.754;6.106;2023-03-01T16:33:05;9.40;60.50
12726;DHT22;6427;49.754;6.106;2023-03-01T16:35:38;9.30;60.50
12726;DHT22;6427;49.754;6.106;2023-03-01T16:38:05;9.20;60.70
12726;DHT22;6427;49.754;6.106;2023-03-01T16:40:36;9.40;60.40
12726;DHT22;6427;49.754;6.106;2023-03-01T16:43:00;9.50;59.40
12726;DHT22;6427;49.754;6.106;2023-03-01T16:45:37;9.30;59.20
12726;DHT22;6427;49.754;6.106;2023-03-01T16:48:08;9.10;59.60
12726;DHT22;6427;49.754;6.106;2023-03-01T16:50:36;8.70;60.70
12726;DHT22;6427;49.754;6.106;2023-03-01T16:53:04;8.70;60.60
12726;DHT22;6427;49.754;6.106;2023-03-01T16:55:31;8.50;60.90
12726;DHT22;6427;49.754;6.106;2023-03-01T16:57:59;8.40;61.30
12726;DHT22;6427;49.754;6.106;2023-03-01T17:00:27;8.20;62.00
12726;DHT22;6427;49.754;6.106;2023-03-01T17:02:54;8.00;62.40
12726;DHT22;6427;49.754;6.106;2023-03-01T17:05:22;7.90;62.80
12726;DHT22;6427;49.754;6.106;2023-03-01T17:07:49;8.00;62.30
12726;DHT22;6427;49.754;6.106;2023-03-01T17:10:17;8.20;62.70
12726;DHT22;6427;49.754;6.106;2023-03-01T17:12:47;8.00;62.60
12726;DHT22;6427;49.754;6.106;2023-03-01T17:15:13;7.50;64.10
12726;DHT22;6427;49.754;6.106;2023-03-01T17:17:40;7.50;64.00
12726;DHT22;6427;49.754;6.106;2023-03-01T17:20:08;7.40;64.80
12726;DHT22;6427;49.754;6.106;2023-03-01T17:22:35;7.40;65.50
12726;DHT22;6427;49.754;6.106;2023-03-01T17:25:03;7.20;65.50
12726;DHT22;6427;49.754;6.106;2023-03-01T17:27:31;7.10;66.10
12726;DHT22;6427;49.754;6.106;2023-03-01T17:29:58;6.90;66.60
12726;DHT22;6427;49.754;6.106;2023-03-01T17:32:26;6.80;67.80
12726;DHT22;6427;49.754;6.106;2023-03-01T17:34:54;6.70;67.50
12726;DHT22;6427;49.754;6.106;2023-03-01T17:37:22;6.50;68.40
12726;DHT22;6427;49.754;6.106;2023-03-01T17:39:50;6.50;68.40